sensor_id;sensor_type;location;lat;lon;timestamp;pressure;altitude;pressure_sealevel;temperature
68745;BMP180;73143;45.456;11.064;2023-11-19T19:51:34;100818.80;;;9.16
68745;BMP180;73143;45.456;11.064;2023-11-19T19:54:12;100815.20;;;9.20
68745;BMP180;73143;45.456;11.064;2023-11-19T19:56:50;100808.80;;;9.20
68745;BMP180;73143;45.456;11.064;2023-11-19T19:59:26;100799.80;;;9.20
68745;BMP180;73143;45.456;11.064;2023-11-19T20:02:03;100805.40;;;9.16
68745;BMP180;73143;45.456;11.064;2023-11-19T20:04:41;100818.80;;;9.12
68745;BMP180;73143;45.456;11.064;2023-11-19T20:07:23;100811.00;;;9.10
68745;BMP180;73143;45.456;11.064;2023-11-19T20:10:01;100809.20;;;9.10
68745;BMP180;73143;45.456;11.064;2023-11-19T20:12:38;100807.80;;;9.10
68745;BMP180;73143;45.456;11.064;2023-11-19T20:15:15;100810.80;;;9.10
68745;BMP180;73143;45.456;11.064;2023-11-19T20:17:54;100812.80;;;9.00
68745;BMP180;73143;45.456;11.064;2023-11-19T20:20:32;100810.80;;;9.00
68745;BMP180;73143;45.456;11.064;2023-11-19T20:23:11;100807.20;;;9.00
68745;BMP180;73143;45.456;11.064;2023-11-19T20:25:48;100804.60;;;9.00
68745;BMP180;73143;45.456;11.064;2023-11-19T20:28:24;100809.80;;;9.00
68745;BMP180;73143;45.456;11.064;2023-11-19T20:31:02;100813.80;;;9.00
68745;BMP180;73143;45.456;11.064;2023-11-19T20:33:39;100804.60;;;9.00
68745;BMP180;73143;45.456;11.064;2023-11-19T20:36:17;100819.20;;;9.00
68745;BMP180;73143;45.456;11.064;2023-11-19T20:38:54;100817.80;;;9.00
68745;BMP180;73143;45.456;11.064;2023-11-19T20:41:30;100819.60;;;9.00
68745;BMP180;73143;45.456;11.064;2023-11-19T20:44:08;100811.80;;;8.90
68745;BMP180;73143;45.456;11.064;2023-11-19T20:46:46;100810.20;;;8.90
68745;BMP180;73143;45.456;11.064;2023-11-19T20:49:24;100817.20;;;8.90
68745;BMP180;73143;45.456;11.064;2023-11-19T20:52:01;100815.20;;;8.90
68745;BMP180;73143;45.456;11.064;2023-11-19T20:54:38;100816.60;;;8.90
68745;BMP180;73143;45.456;11.064;2023-11-19T20:57:15;100818.40;;;8.84
68745;BMP180;73143;45.456;11.064;2023-11-19T20:59:52;100811.00;;;8.80
68745;BMP180;73143;45.456;11.064;2023-11-19T21:02:30;100811.60;;;8.80
68745;BMP180;73143;45.456;11.064;2023-11-19T21:05:10;100812.80;;;8.80
68745;BMP180;73143;45.456;11.064;2023-11-19T21:07:51;100805.60;;;8.80
68745;BMP180;73143;45.456;11.064;2023-11-19T21:10:29;100804.20;;;8.80
68745;BMP180;73143;45.456;11.064;2023-11-19T21:13:06;100798.20;;;8.80
68745;BMP180;73143;45.456;11.064;2023-11-19T21:15:43;100794.80;;;8.80
68745;BMP180;73143;45.456;11.064;2023-11-19T21:18:31;100795.00;;;8.80
68745;BMP180;73143;45.456;11.064;2023-11-19T21:21:10;100795.40;;;8.70
68745;BMP180;73143;45.456;11.064;2023-11-19T21:23:46;100793.40;;;8.70
68745;BMP180;73143;45.456;11.064;2023-11-19T21:26:24;100786.80;;;8.70
68745;BMP180;73143;45.456;11.064;2023-11-19T21:29:02;100783.20;;;8.60
68745;BMP180;73143;45.456;11.064;2023-11-19T21:31:40;100782.20;;;8.60
68745;BMP180;73143;45.456;11.064;2023-11-19T21:34:19;100774.80;;;8.60
68745;BMP180;73143;45.456;11.064;2023-11-19T21:36:57;100770.80;;;8.60
68745;BMP180;73143;45.456;11.064;2023-11-19T21:39:35;100774.60;;;8.52
68745;BMP180;73143;45.456;11.064;2023-11-19T21:42:13;100780.20;;;8.50
68745;BMP180;73143;45.456;11.064;2023-11-19T21:44:50;100781.20;;;8.50
68745;BMP180;73143;45.456;11.064;2023-11-19T21:47:27;100772.80;;;8.50
68745;BMP180;73143;45.456;11.064;2023-11-19T21:50:04;100777.00;;;8.50
68745;BMP180;73143;45.456;11.064;2023-11-19T21:52:42;100778.40;;;8.50
68745;BMP180;73143;45.456;11.064;2023-11-19T21:55:20;100780.80;;;8.50
68745;BMP180;73143;45.456;11.064;2023-11-19T21:57:58;100782.60;;;8.50
68745;BMP180;73143;45.456;11.064;2023-11-19T22:00:35;100786.00;;;8.50
68745;BMP180;73143;45.456;11.064;2023-11-19T22:03:13;100786.60;;;8.50
68745;BMP180;73143;45.456;11.064;2023-11-19T22:05:52;100784.60;;;8.50
68745;BMP180;73143;45.456;11.064;2023-11-19T22:08:29;100794.60;;;8.50
68745;BMP180;73143;45.456;11.064;2023-11-19T22:11:06;100791.80;;;8.50
68745;BMP180;73143;45.456;11.064;2023-11-19T22:13:45;100787.40;;;8.50
68745;BMP180;73143;45.456;11.064;2023-11-19T22:16:22;100789.60;;;8.50
68745;BMP180;73143;45.456;11.064;2023-11-19T22:19:00;100786.60;;;8.50
68745;BMP180;73143;45.456;11.064;2023-11-19T22:21:37;100780.60;;;8.60
68745;BMP180;73143;45.456;11.064;2023-11-19T22:24:15;100781.60;;;8.54
68745;BMP180;73143;45.456;11.064;2023-11-19T22:26:52;100781.40;;;8.50
68745;BMP180;73143;45.456;11.064;2023-11-19T22:29:30;100779.40;;;8.50
68745;BMP180;73143;45.456;11.064;2023-11-19T22:32:09;100778.20;;;8.50
68745;BMP180;73143;45.456;11.064;2023-11-19T22:35:06;100775.20;;;8.50
68745;BMP180;73143;45.456;11.064;2023-11-19T22:37:43;100778.60;;;8.52
68745;BMP180;73143;45.456;11.064;2023-11-19T22:40:20;100777.80;;;8.52
68745;BMP180;73143;45.456;11.064;2023-11-19T22:42:57;100784.60;;;8.50
68745;BMP180;73143;45.456;11.064;2023-11-19T22:45:35;100785.80;;;8.50
68745;BMP180;73143;45.456;11.064;2023-11-19T22:48:13;100784.20;;;8.50
68745;BMP180;73143;45.456;11.064;2023-11-19T22:50:50;100781.40;;;8.50
68745;BMP180;73143;45.456;11.064;2023-11-19T22:53:28;100775.40;;;8.50
68745;BMP180;73143;45.456;11.064;2023-11-19T22:56:08;100775.20;;;8.50
68745;BMP180;73143;45.456;11.064;2023-11-19T22:58:50;100775.60;;;8.50
68745;BMP180;73143;45.456;11.064;2023-11-19T23:01:29;100776.40;;;8.50
68745;BMP180;73143;45.456;11.064;2023-11-19T23:04:08;100777.00;;;8.50
68745;BMP180;73143;45.456;11.064;2023-11-19T23:06:45;100772.00;;;8.50
68745;BMP180;73143;45.456;11.064;2023-11-19T23:09:23;100771.20;;;8.50
68745;BMP180;73143;45.456;11.064;2023-11-19T23:12:03;100767.00;;;8.50
68745;BMP180;73143;45.456;11.064;2023-11-19T23:14:40;100760.00;;;8.50
68745;BMP180;73143;45.456;11.064;2023-11-19T23:17:18;100758.80;;;8.50
68745;BMP180;73143;45.456;11.064;2023-11-19T23:19:54;100764.00;;;8.50
68745;BMP180;73143;45.456;11.064;2023-11-19T23:22:43;100759.80;;;8.50
68745;BMP180;73143;45.456;11.064;2023-11-19T23:25:23;100764.00;;;8.42
68745;BMP180;73143;45.456;11.064;2023-11-19T23:28:02;100763.20;;;8.40
68745;BMP180;73143;45.456;11.064;2023-11-19T23:30:39;100763.00;;;8.40
68745;BMP180;73143;45.456;11.064;2023-11-19T23:33:17;100765.40;;;8.40
68745;BMP180;73143;45.456;11.064;2023-11-19T23:35:54;100763.40;;;8.40
68745;BMP180;73143;45.456;11.064;2023-11-19T23:38:31;100757.80;;;8.40
68745;BMP180;73143;45.456;11.064;2023-11-19T23:41:11;100757.20;;;8.30
68745;BMP180;73143;45.456;11.064;2023-11-19T23:43:49;100752.80;;;8.30
68745;BMP180;73143;45.456;11.064;2023-11-19T23:46:26;100762.40;;;8.30
68745;BMP180;73143;45.456;11.064;2023-11-19T23:49:03;100758.20;;;8.24
68745;BMP180;73143;45.456;11.064;2023-11-19T23:51:43;100759.40;;;8.20
68745;BMP180;73143;45.456;11.064;2023-11-19T23:54:21;100758.80;;;8.10
68745;BMP180;73143;45.456;11.064;2023-11-19T23:56:57;100758.20;;;8.10
68745;BMP180;73143;45.456;11.064;2023-11-19T23:59:35;100753.60;;;8.10
